Time;durP1;ratioP1;P1;durP2;ratioP2;P2;SDS_P1;SDS_P2;PMS_P1;PMS_P2;Temp;Humidity;BMP_temperature;BMP_pressure;BME280_temperature;BME280_humidity;BME280_pressure;Samples;Min_cycle;Max_cycle;Signal;HPM_P1;HPM_P2
2023/09/09 00:00:54;;;;;;;9.03;4.03;;;;;;;11.10;100.00;102197.72;5053137;28;20483;-67
2023/09/09 00:03:21;;;;;;;5.47;3.83;;;;;;;11.09;100.00;102194.22;5051879;28;20394;-66
2023/09/09 00:05:47;;;;;;;4.50;3.43;;;;;;;10.80;100.00;102154.03;5053665;28;20103;-65
2023/09/09 00:08:12;;;;;;;7.30;4.33;;;;;;;11.02;100.00;102197.53;5053244;28;20109;-67
2023/09/09 00:10:38;;;;;;;7.17;3.90;;;;;;;11.07;100.00;102212.16;5053132;28;20384;-67
2023/09/09 00:13:05;;;;;;;6.63;3.83;;;;;;;10.99;100.00;102205.81;5053073;28;20063;-65
2023/09/09 00:15:31;;;;;;;8.03;3.50;;;;;;;11.02;100.00;102213.53;5052823;28;20449;-64
2023/09/09 00:17:57;;;;;;;6.43;3.73;;;;;;;10.99;100.00;102219.13;5052046;28;20029;-65
2023/09/09 00:20:40;;;;;;;10.60;4.40;;;;;;;10.97;100.00;102205.91;5052959;28;20119;-66
2023/09/09 00:23:09;;;;;;;7.37;4.90;;;;;;;10.94;100.00;102205.31;5052883;28;20454;-66
2023/09/09 00:25:38;;;;;;;5.65;3.63;;;;;;;10.93;100.00;102215.13;5052871;28;20085;-66
2023/09/09 00:28:05;;;;;;;8.90;3.73;;;;;;;10.92;100.00;102217.94;5052586;28;20024;-66
2023/09/09 00:30:30;;;;;;;7.97;4.20;;;;;;;10.93;100.00;102222.28;5053234;28;20359;-67
2023/09/09 00:32:59;;;;;;;5.87;3.67;;;;;;;10.90;100.00;102217.22;5034907;28;20127;-67
2023/09/09 00:35:24;;;;;;;10.43;4.40;;;;;;;10.91;100.00;102221.56;5052648;28;20045;-66
2023/09/09 00:37:50;;;;;;;7.53;3.80;;;;;;;10.81;100.00;102209.03;5053149;28;20552;-66
2023/09/09 00:40:15;;;;;;;9.83;4.37;;;;;;;10.77;100.00;102206.75;5052508;28;20050;-65
2023/09/09 00:42:41;;;;;;;6.60;4.03;;;;;;;10.75;100.00;102222.88;5051141;28;20041;-65
2023/09/09 00:45:07;;;;;;;7.97;4.20;;;;;;;10.71;100.00;102210.78;5052357;28;20484;-65
2023/09/09 00:47:34;;;;;;;7.80;4.27;;;;;;;10.65;100.00;102211.28;5051174;28;20032;-67
2023/09/09 00:49:59;;;;;;;6.00;4.10;;;;;;;10.68;100.00;102224.34;5052348;28;20039;-65
2023/09/09 00:52:26;;;;;;;7.13;4.90;;;;;;;10.66;100.00;102228.09;5052297;28;20536;-66
2023/09/09 00:54:52;;;;;;;7.13;3.97;;;;;;;10.74;100.00;102242.50;5035083;28;20029;-67
2023/09/09 00:57:17;;;;;;;6.47;4.23;;;;;;;10.58;100.00;102220.75;5052563;28;20032;-66
2023/09/09 00:59:43;;;;;;;9.03;3.90;;;;;;;10.62;100.00;102227.53;5052016;28;20486;-65
2023/09/09 01:02:08;;;;;;;7.37;4.27;;;;;;;10.51;100.00;102215.09;5052396;28;20071;-66
2023/09/09 01:04:34;;;;;;;5.67;4.10;;;;;;;10.59;100.00;102232.25;5051942;28;20037;-67
2023/09/09 01:07:02;;;;;;;6.80;4.87;;;;;;;10.59;100.00;102238.44;5051953;28;20417;-65
2023/09/09 01:09:30;;;;;;;7.33;3.93;;;;;;;10.59;100.00;102246.44;5052061;28;20124;-65
2023/09/09 01:11:56;;;;;;;6.38;3.40;;;;;;;10.56;100.00;102241.34;5051889;28;20361;-65
2023/09/09 01:14:22;;;;;;;7.57;4.07;;;;;;;10.55;100.00;102245.00;5050387;28;20032;-65
2023/09/09 01:16:51;;;;;;;7.90;4.23;;;;;;;10.58;100.00;102260.72;5052545;28;20478;-65
2023/09/09 01:19:19;;;;;;;5.63;4.00;;;;;;;10.50;100.00;102255.19;5052061;28;20055;-66
2023/09/09 01:21:46;;;;;;;7.15;4.20;;;;;;;10.37;100.00;102239.34;5051884;28;20028;-66
2023/09/09 01:24:16;;;;;;;8.10;4.33;;;;;;;10.51;100.00;102262.19;5051828;28;20025;-65
2023/09/09 01:26:45;;;;;;;9.27;4.67;;;;;;;10.49;100.00;102259.66;5051710;28;20033;-66
2023/09/09 01:29:11;;;;;;;6.00;4.43;;;;;;;10.44;100.00;102256.53;5051672;28;20029;-65
2023/09/09 01:31:37;;;;;;;7.90;3.90;;;;;;;10.36;100.00;102250.97;5050560;28;20439;-65
2023/09/09 01:34:05;;;;;;;9.40;5.03;;;;;;;10.37;100.00;102251.81;5050604;28;20068;-66
2023/09/09 01:36:31;;;;;;;8.80;4.33;;;;;;;9.68;100.00;102144.72;5052042;28;20457;-65
2023/09/09 01:38:56;;;;;;;10.60;4.53;;;;;;;10.26;100.00;102247.38;5051640;28;20047;-64
2023/09/09 01:41:22;;;;;;;6.07;3.80;;;;;;;10.25;100.00;102243.03;5051379;28;20033;-65
2023/09/09 01:43:47;;;;;;;7.00;4.43;;;;;;;10.28;100.00;102247.25;5050555;28;20128;-67
2023/09/09 01:46:13;;;;;;;7.73;4.33;;;;;;;10.28;100.00;102247.25;5051712;28;20025;-66
2023/09/09 01:48:38;;;;;;;5.17;4.10;;;;;;;10.25;100.00;102251.00;5051586;28;20053;-66
2023/09/09 01:51:04;;;;;;;10.13;4.20;;;;;;;10.31;100.00;102260.31;5050529;28;20064;-66
2023/09/09 01:53:29;;;;;;;5.63;4.40;;;;;;;10.24;100.00;102250.16;5051583;28;20032;-65
2023/09/09 01:55:58;;;;;;;5.47;4.23;;;;;;;9.92;100.00;102202.16;5051379;28;20029;-65
2023/09/09 01:58:23;;;;;;;;;;;;;;;10.34;100.00;102268.03;5051823;28;20345;-65
2023/09/09 02:00:49;;;;;;;6.23;3.97;;;;;;;10.29;100.00;102273.75;5051580;28;19961;-65
2023/09/09 02:03:14;;;;;;;7.70;4.40;;;;;;;10.21;100.00;102261.06;5051667;28;20021;-67
2023/09/09 02:05:40;;;;;;;8.33;4.63;;;;;;;10.26;100.00;102267.81;5051753;28;20099;-65
2023/09/09 02:08:06;;;;;;;10.60;5.07;;;;;;;10.07;100.00;102233.81;5051408;28;20017;-65
2023/09/09 02:10:31;;;;;;;9.53;4.80;;;;;;;10.09;100.00;102240.69;5051313;28;20033;-64
2023/09/09 02:12:57;;;;;;;6.60;4.10;;;;;;;10.12;100.00;102251.13;5051401;28;20036;-66
2023/09/09 02:15:22;;;;;;;6.60;3.90;;;;;;;10.16;100.00;102254.38;5051698;28;20025;-65
2023/09/09 02:17:48;;;;;;;7.90;3.73;;;;;;;9.99;100.00;102239.75;5051462;28;20033;-67
2023/09/09 02:20:13;;;;;;;5.43;4.00;;;;;;;10.11;100.00;102260.06;5051205;28;20403;-66
2023/09/09 02:22:39;;;;;;;8.17;5.00;;;;;;;9.97;100.00;102235.53;5051348;28;20159;-66
2023/09/09 02:25:07;;;;;;;7.67;4.30;;;;;;;10.10;100.00;102269.00;5051125;28;20082;-64
2023/09/09 02:27:32;;;;;;;6.77;4.90;;;;;;;10.08;100.00;102270.09;5051441;28;20033;-67
2023/09/09 02:29:58;;;;;;;6.40;5.13;;;;;;;10.05;100.00;102263.22;5049899;28;20284;-66
2023/09/09 02:32:23;;;;;;;7.43;4.87;;;;;;;10.01;100.00;102252.94;5083572;28;20033;-65
2023/09/09 02:34:49;;;;;;;8.60;4.83;;;;;;;9.85;100.00;102243.53;5051313;28;20048;-65
2023/09/09 02:37:17;;;;;;;5.87;4.77;;;;;;;10.03;100.00;102270.47;5051139;28;20033;-65
2023/09/09 02:39:44;;;;;;;9.65;5.32;;;;;;;9.85;100.00;102245.34;5051834;28;20076;-67
2023/09/09 02:42:11;;;;;;;6.07;4.67;;;;;;;9.99;100.00;102277.03;5053820;28;20071;-65
2023/09/09 02:44:37;;;;;;;6.00;4.67;;;;;;;9.87;100.00;102257.56;5055250;28;20033;-66
2023/09/09 02:47:02;;;;;;;7.43;5.40;;;;;;;9.94;100.00;102277.38;5054764;28;20032;-64
2023/09/09 02:49:28;;;;;;;10.70;5.83;;;;;;;9.67;100.00;102237.00;5054670;28;20050;-65
2023/09/09 02:51:53;;;;;;;7.70;5.43;;;;;;;9.95;100.00;102288.88;5054702;28;20029;-65
2023/09/09 02:54:19;;;;;;;7.67;4.73;;;;;;;9.87;100.00;102283.31;5054391;28;20028;-65
2023/09/09 02:56:44;;;;;;;10.63;6.10;;;;;;;9.89;100.00;102298.19;5054532;28;20025;-65
2023/09/09 02:59:10;;;;;;;12.40;5.30;;;;;;;9.88;100.00;102293.84;5054575;28;20105;-66
2023/09/09 03:01:35;;;;;;;7.73;5.50;;;;;;;9.71;100.00;102267.69;5053347;28;20068;-66
2023/09/09 03:04:00;;;;;;;7.70;5.17;;;;;;;9.88;100.00;102299.16;5054272;28;20464;-65
2023/09/09 03:06:26;;;;;;;7.23;4.90;;;;;;;9.84;100.00;102283.56;5053091;28;20116;-68
2023/09/09 03:08:51;;;;;;;7.93;5.27;;;;;;;9.86;100.00;102294.94;5054100;28;20511;-67
2023/09/09 03:11:17;;;;;;;7.47;4.87;;;;;;;9.84;100.00;102299.53;5054368;28;20025;-66
2023/09/09 03:13:43;;;;;;;7.50;4.97;;;;;;;9.81;100.00;102286.44;5054275;28;20094;-66
2023/09/09 03:16:08;;;;;;;7.03;4.23;;;;;;;9.70;100.00;102267.81;5054359;28;20029;-65
2023/09/09 03:18:33;;;;;;;10.77;6.23;;;;;;;9.52;100.00;102241.69;5052912;28;20044;-65
2023/09/09 03:20:59;;;;;;;6.33;4.60;;;;;;;9.83;100.00;102304.00;5053938;28;20029;-66
2023/09/09 03:23:24;;;;;;;7.33;5.23;;;;;;;9.82;100.00;102299.63;5053796;28;20020;-65
2023/09/09 03:25:50;;;;;;;9.77;4.60;;;;;;;9.77;100.00;102295.63;5053909;28;20052;-65
2023/09/09 03:28:16;;;;;;;12.63;5.30;;;;;;;9.83;100.00;102300.47;5054215;28;20380;-67
2023/09/09 03:30:55;;;;;;;8.27;5.40;;;;;;;9.77;100.00;102293.81;5054185;28;20046;-66
2023/09/09 03:33:21;;;;;;;8.10;5.33;;;;;;;9.88;100.00;102308.97;5053775;28;20124;-65
2023/09/09 03:35:46;;;;;;;6.60;4.93;;;;;;;9.89;100.00;102314.16;5053756;28;20060;-64
2023/09/09 03:38:12;;;;;;;11.97;6.00;;;;;;;9.88;100.00;102306.31;5053458;28;20029;-65
2023/09/09 03:40:37;;;;;;;14.60;6.20;;;;;;;9.81;100.00;102297.09;5053766;28;20044;-64
2023/09/09 03:43:03;;;;;;;10.50;5.70;;;;;;;9.87;100.00;102312.59;5053742;28;20100;-66
2023/09/09 03:45:28;;;;;;;9.17;5.43;;;;;;;9.68;100.00;102289.22;5053624;28;20033;-66
2023/09/09 03:47:54;;;;;;;11.47;5.33;;;;;;;9.63;100.00;102280.75;5052558;28;20038;-66
2023/09/09 03:50:19;;;;;;;6.63;4.97;;;;;;;9.78;100.00;102305.31;5053399;28;20271;-65
2023/09/09 03:52:44;;;;;;;8.63;5.93;;;;;;;9.94;100.00;102327.09;5052084;28;20601;-66
2023/09/09 03:55:11;;;;;;;6.57;5.50;;;;;;;9.94;100.00;102329.78;5053581;28;20054;-65
2023/09/09 03:57:37;;;;;;;6.50;5.43;;;;;;;9.84;100.00;102315.50;5053321;28;20029;-64
2023/09/09 04:00:03;;;;;;;8.53;6.07;;;;;;;9.78;100.00;102302.66;5053252;28;20037;-66
2023/09/09 04:02:29;;;;;;;9.77;6.40;;;;;;;9.92;100.00;102329.91;5053133;28;20453;-67
2023/09/09 04:04:54;;;;;;;8.83;5.67;;;;;;;10.05;100.00;102343.06;5051890;28;20027;-64
2023/09/09 04:07:20;;;;;;;9.73;6.33;;;;;;;10.07;100.00;102341.13;5053041;28;20100;-65
2023/09/09 04:09:45;;;;;;;9.10;5.80;;;;;;;9.98;100.00;102317.91;5053416;28;20358;-67
2023/09/09 04:12:11;;;;;;;9.50;6.33;;;;;;;9.97;100.00;102316.22;5053500;28;20021;-66
2023/09/09 04:14:40;;;;;;;9.90;5.53;;;;;;;9.96;100.00;102309.19;5053470;28;20443;-66
2023/09/09 04:17:07;;;;;;;8.27;5.82;;;;;;;10.07;100.00;102327.81;5051773;28;20035;-63
2023/09/09 04:19:33;;;;;;;8.83;6.37;;;;;;;10.15;100.00;102333.41;5052704;28;20467;-67
2023/09/09 04:21:59;;;;;;;9.60;6.33;;;;;;;10.07;100.00;102309.19;5053431;28;20112;-67
2023/09/09 04:24:25;;;;;;;11.77;6.20;;;;;;;10.10;100.00;102311.59;5053076;28;20033;-64
2023/09/09 04:26:50;;;;;;;9.10;5.63;;;;;;;10.21;100.00;102332.94;5052993;28;20048;-67
2023/09/09 04:29:16;;;;;;;8.70;5.37;;;;;;;10.16;100.00;102326.28;5052825;28;20487;-67
2023/09/09 04:31:43;;;;;;;10.43;6.63;;;;;;;10.13;100.00;102311.38;5051213;28;20088;-65
2023/09/09 04:34:11;;;;;;;8.77;5.17;;;;;;;9.35;100.00;102189.00;5052609;28;20063;-66
2023/09/09 04:36:36;;;;;;;8.82;5.95;;;;;;;10.28;100.00;102330.63;5051333;28;20380;-65
2023/09/09 04:39:02;;;;;;;9.00;6.20;;;;;;;10.19;100.00;102318.88;5052673;28;20025;-66
2023/09/09 04:41:27;;;;;;;10.47;5.57;;;;;;;10.33;100.00;102332.94;5052592;28;20035;-65
2023/09/09 04:43:53;;;;;;;14.23;6.00;;;;;;;10.46;100.00;102345.16;5052539;28;20112;-64
2023/09/09 04:46:18;;;;;;;13.67;6.70;;;;;;;10.51;100.00;102336.78;5052262;28;20430;-65
2023/09/09 04:48:44;;;;;;;12.50;7.33;;;;;;;10.49;100.00;102326.25;5052387;28;20361;-67
2023/09/09 04:51:09;;;;;;;9.53;7.03;;;;;;;10.46;100.00;102323.00;5052435;28;20079;-66
2023/09/09 04:53:35;;;;;;;9.40;7.40;;;;;;;10.18;100.00;102279.91;5052356;28;20029;-65
2023/09/09 04:56:02;;;;;;;12.37;8.03;;;;;;;10.58;100.00;102339.78;5052166;28;20162;-67
2023/09/09 04:58:27;;;;;;;9.30;7.33;;;;;;;10.52;100.00;102318.00;5052477;28;20078;-67
2023/09/09 05:00:53;;;;;;;13.73;8.03;;;;;;;10.60;100.00;102330.72;5051844;28;20419;-65
2023/09/09 05:03:18;;;;;;;12.27;7.97;;;;;;;10.62;100.00;102336.75;5051450;28;20120;-66
2023/09/09 05:05:43;;;;;;;12.17;7.60;;;;;;;10.72;100.00;102342.22;5052116;28;20032;-65
2023/09/09 05:08:09;;;;;;;10.07;6.43;;;;;;;10.72;100.00;102340.38;5052408;28;20028;-65
2023/09/09 05:10:34;;;;;;;10.10;6.47;;;;;;;10.52;100.00;102293.19;5052375;28;20039;-65
2023/09/09 05:13:00;;;;;;;12.60;7.50;;;;;;;10.87;100.00;102348.94;5052132;28;20465;-66
2023/09/09 05:15:25;;;;;;;15.30;8.27;;;;;;;10.85;100.00;102343.72;5052069;28;20032;-65
2023/09/09 05:17:51;;;;;;;11.13;7.70;;;;;;;10.91;100.00;102337.03;5052048;28;20048;-66
2023/09/09 05:20:17;;;;;;;10.07;7.97;;;;;;;11.00;100.00;102343.44;5051783;28;20033;-66
2023/09/09 05:22:42;;;;;;;13.23;8.27;;;;;;;11.00;100.00;102338.13;5049442;28;20033;-66
2023/09/09 05:25:08;;;;;;;11.93;7.90;;;;;;;11.07;100.00;102342.81;5032690;28;20025;-66
2023/09/09 05:27:33;;;;;;;13.83;7.90;;;;;;;11.08;100.00;102335.66;5031998;28;20062;-67
2023/09/09 05:29:59;;;;;;;13.40;8.50;;;;;;;11.25;100.00;102348.41;5030372;28;20053;-65
2023/09/09 05:32:25;;;;;;;13.07;8.00;;;;;;;11.21;100.00;102320.31;5046432;28;20144;-65
2023/09/09 05:34:51;;;;;;;14.23;8.17;;;;;;;11.39;100.00;102340.13;5051485;28;20194;-65
2023/09/09 05:37:16;;;;;;;13.20;8.33;;;;;;;11.43;100.00;102348.69;5051854;28;20048;-65
2023/09/09 05:39:42;;;;;;;14.53;8.10;;;;;;;11.41;100.00;102331.97;5051834;28;20025;-66
2023/09/09 05:42:07;;;;;;;23.20;8.60;;;;;;;11.54;100.00;102353.13;5050156;28;20403;-68
2023/09/09 05:44:39;;;;;;;13.37;7.90;;;;;;;11.60;100.00;102352.63;5031754;28;20033;-68
2023/09/09 05:47:08;;;;;;;14.40;8.93;;;;;;;11.67;100.00;102353.78;5031656;28;20042;-67
2023/09/09 05:49:33;;;;;;;15.07;8.40;;;;;;;11.63;100.00;102336.34;5031997;28;20049;-67
2023/09/09 05:51:59;;;;;;;12.23;7.93;;;;;;;11.81;100.00;102358.81;5031913;28;20033;-67
2023/09/09 05:54:24;;;;;;;18.03;8.23;;;;;;;11.86;100.00;102359.28;5031787;28;20035;-66
2023/09/09 05:56:50;;;;;;;15.13;8.80;;;;;;;11.62;100.00;102308.81;5030519;28;20452;-68
2023/09/09 05:59:15;;;;;;;13.50;8.20;;;;;;;11.90;100.00;102342.00;5031521;28;20029;-65
2023/09/09 06:01:42;;;;;;;11.87;7.67;;;;;;;12.04;100.00;102360.34;5031678;28;20025;-67
2023/09/09 06:04:07;;;;;;;15.07;9.37;;;;;;;12.02;100.00;102350.78;5031532;28;20439;-65
2023/09/09 06:06:33;;;;;;;15.33;8.60;;;;;;;12.19;100.00;102354.66;5031666;28;20034;-66
2023/09/09 06:08:58;;;;;;;19.43;10.53;;;;;;;12.18;100.00;102344.94;5046873;28;20033;-66
2023/09/09 06:11:25;;;;;;;16.83;8.90;;;;;;;11.38;100.00;102210.38;5031271;28;20052;-64
2023/09/09 06:13:51;;;;;;;17.77;9.07;;;;;;;12.39;100.00;102361.75;5030157;28;20048;-66
2023/09/09 06:16:17;;;;;;;19.60;8.90;;;;;;;12.36;100.00;102354.00;5034670;28;20435;-66
2023/09/09 06:18:42;;;;;;;16.80;8.93;;;;;;;12.46;100.00;102368.25;5035376;28;20021;-66
2023/09/09 06:21:08;;;;;;;19.40;9.23;;;;;;;12.50;100.00;102367.00;5034881;28;20068;-66
2023/09/09 06:23:35;;;;;;;12.07;8.70;;;;;;;12.58;100.00;102367.16;5035001;28;20132;-66
2023/09/09 06:26:01;;;;;;;16.10;8.03;;;;;;;12.66;100.00;102369.97;5035178;28;20467;-68
2023/09/09 06:28:26;;;;;;;15.00;9.50;;;;;;;12.74;100.00;102376.50;5035019;28;20029;-66
2023/09/09 06:30:53;;;;;;;16.37;8.20;;;;;;;12.62;100.00;102347.19;5033543;28;20448;-66
2023/09/09 06:33:18;;;;;;;16.00;8.27;;;;;;;12.79;100.00;102366.22;5035537;28;20041;-70
2023/09/09 06:35:48;;;;;;;16.10;9.00;;;;;;;12.78;100.00;102351.16;5035674;28;20037;-69
2023/09/09 06:38:13;;;;;;;20.13;9.10;;;;;;;12.74;100.00;102339.06;5035301;28;20025;-77
2023/09/09 06:40:39;;;;;;;15.37;8.67;;;;;;;12.95;100.00;102351.31;5034922;28;20064;-70
2023/09/09 06:43:04;;;;;;;14.47;10.47;;;;;;;12.90;100.00;102334.00;5034895;28;20033;-67
2023/09/09 06:45:30;;;;;;;17.30;10.03;;;;;;;13.14;100.00;102363.88;5034893;28;20037;-67
2023/09/09 06:47:56;;;;;;;13.80;9.97;;;;;;;13.21;100.00;102366.84;5033592;28;20044;-68
2023/09/09 06:50:21;;;;;;;15.27;8.90;;;;;;;13.33;100.00;102379.97;5034993;28;20029;-64
2023/09/09 06:52:47;;;;;;;15.23;8.47;;;;;;;13.40;100.00;102374.03;5034648;28;20034;-66
2023/09/09 06:55:12;;;;;;;20.57;7.23;;;;;;;13.46;100.00;102376.13;5033451;28;20037;-66
2023/09/09 06:57:38;;;;;;;12.33;7.43;;;;;;;13.53;100.00;102385.28;5033423;28;20030;-66
2023/09/09 07:00:05;;;;;;;14.20;8.60;;;;;;;13.50;100.00;102364.16;5033189;28;20044;-69
2023/09/09 07:02:30;;;;;;;21.20;12.43;;;;;;;13.59;100.00;102379.38;5016854;28;20028;-70
2023/09/09 07:04:56;;;;;;;12.93;8.80;;;;;;;13.69;100.00;102388.22;5034548;28;20026;-67
2023/09/09 07:07:21;;;;;;;12.23;8.27;;;;;;;13.61;100.00;102362.19;5034804;28;20017;-71
2023/09/09 07:09:46;;;;;;;13.23;8.57;;;;;;;13.64;100.00;102358.38;5034950;28;20405;-68
2023/09/09 07:12:12;;;;;;;12.17;8.00;;;;;;;13.75;100.00;102374.25;5034802;28;20112;-65
2023/09/09 07:14:37;;;;;;;12.23;7.63;;;;;;;13.89;100.00;102381.00;5034117;28;20117;-66
2023/09/09 07:17:03;;;;;;;12.07;8.77;;;;;;;13.90;100.00;102377.34;5034228;28;20032;-65
2023/09/09 07:19:29;;;;;;;16.30;9.00;;;;;;;13.85;100.00;102356.31;5034265;28;20491;-71
2023/09/09 07:21:54;;;;;;;17.40;9.00;;;;;;;14.01;100.00;102362.91;5033930;28;20490;-68
2023/09/09 07:24:20;;;;;;;17.70;9.67;;;;;;;14.05;100.00;102373.19;5034037;28;20028;-67
2023/09/09 07:26:46;;;;;;;13.20;8.47;;;;;;;14.19;100.00;102382.63;5048863;28;20503;-68
2023/09/09 07:29:15;;;;;;;14.17;8.60;;;;;;;14.30;100.00;102390.44;5033694;28;20033;-70
2023/09/09 07:31:45;;;;;;;15.97;8.73;;;;;;;14.35;100.00;102393.53;5034424;28;20064;-66
2023/09/09 07:34:12;;;;;;;13.87;8.90;;;;;;;14.44;100.00;102392.66;5033916;28;20029;-70
2023/09/09 07:36:37;;;;;;;16.97;9.87;;;;;;;14.52;100.00;102389.28;5032878;28;20060;-68
2023/09/09 07:39:03;;;;;;;14.87;9.23;;;;;;;14.56;100.00;102390.66;5032477;28;20449;-65
2023/09/09 07:41:28;;;;;;;16.53;10.07;;;;;;;14.64;100.00;102392.56;5033441;28;20083;-67
2023/09/09 07:43:54;;;;;;;18.30;9.73;;;;;;;14.61;100.00;102383.00;5033280;28;20444;-67
2023/09/09 07:46:19;;;;;;;18.73;9.60;;;;;;;14.72;100.00;102396.19;5033684;28;20449;-68
2023/09/09 07:48:44;;;;;;;14.80;8.23;;;;;;;14.72;100.00;102384.63;5033496;28;20435;-70
2023/09/09 07:51:10;;;;;;;12.97;8.30;;;;;;;14.82;99.76;102394.31;5032401;28;20108;-68
2023/09/09 07:53:35;;;;;;;19.17;11.30;;;;;;;14.59;99.79;102347.44;5033647;28;20029;-68
2023/09/09 07:56:01;;;;;;;12.97;7.30;;;;;;;14.91;99.00;102391.72;5032237;28;20022;-68
2023/09/09 07:58:26;;;;;;;15.40;7.53;;;;;;;14.97;98.71;102402.69;5033297;28;20521;-68
2023/09/09 08:01:06;;;;;;;16.77;8.80;;;;;;;14.95;98.56;102385.03;5032982;28;20037;-67
2023/09/09 08:03:31;;;;;;;11.47;7.13;;;;;;;15.07;96.29;102399.94;5033397;28;20480;-67
2023/09/09 08:06:02;;;;;;;13.53;8.90;;;;;;;15.14;96.23;102401.88;5033603;28;20041;-68
2023/09/09 08:08:30;;;;;;;15.00;9.83;;;;;;;15.23;96.96;102399.25;5033147;28;20194;-68
2023/09/09 08:10:56;;;;;;;22.80;10.18;;;;;;;15.31;94.70;102402.00;5048625;28;20079;-68
2023/09/09 08:13:22;;;;;;;14.73;8.17;;;;;;;15.29;94.33;102387.88;5033000;28;20514;-68
2023/09/09 08:15:48;;;;;;;13.83;7.03;;;;;;;15.43;93.12;102395.41;5032998;28;20033;-66
2023/09/09 08:18:13;;;;;;;11.27;7.30;;;;;;;15.43;92.44;102382.84;5033233;28;20159;-69
2023/09/09 08:20:39;;;;;;;17.40;6.50;;;;;;;15.60;90.81;102402.63;5032743;28;20039;-65
2023/09/09 08:23:05;;;;;;;13.93;7.77;;;;;;;15.67;90.13;102402.88;5031521;28;20065;-66
2023/09/09 08:25:32;;;;;;;13.33;7.60;;;;;;;15.67;89.50;102398.34;5042437;28;20443;-68
2023/09/09 08:28:03;;;;;;;20.93;9.53;;;;;;;15.78;89.19;102416.03;5052619;28;20029;-67
2023/09/09 08:30:31;;;;;;;13.53;5.70;;;;;;;15.58;85.93;102366.16;5052301;28;20052;-68
2023/09/09 08:32:56;;;;;;;22.50;7.60;;;;;;;15.87;86.49;102409.72;5052568;28;20033;-68
2023/09/09 08:35:23;;;;;;;12.83;6.40;;;;;;;15.69;86.75;102380.22;5052610;28;20376;-66
2023/09/09 08:37:49;;;;;;;15.77;8.77;;;;;;;15.89;87.52;102393.44;5051591;28;20373;-68
2023/09/09 08:40:14;;;;;;;13.00;7.40;;;;;;;15.91;85.33;102404.91;5052088;28;20032;-68
2023/09/09 08:42:49;;;;;;;12.37;5.83;;;;;;;16.12;85.14;102413.41;5051335;28;20029;-66
2023/09/09 08:45:39;;;;;;;18.50;7.77;;;;;;;16.06;84.09;102392.53;5051744;28;20350;-65
2023/09/09 08:48:07;;;;;;;11.60;6.57;;;;;;;16.14;84.50;102406.03;5052215;28;20031;-68
2023/09/09 08:50:38;;;;;;;11.55;5.75;;;;;;;16.18;84.05;102401.16;5052459;28;20033;-67
2023/09/09 08:53:05;;;;;;;10.27;6.40;;;;;;;16.28;82.72;102413.50;5052549;28;20043;-67
2023/09/09 08:55:31;;;;;;;8.50;5.03;;;;;;;16.34;81.72;102418.25;5052425;28;20078;-66
2023/09/09 08:57:57;;;;;;;8.13;4.47;;;;;;;16.27;77.46;102393.00;5052224;28;20090;-66
2023/09/09 09:00:30;;;;;;;7.40;3.93;;;;;;;16.28;77.37;102392.00;5051925;28;20414;-67
2023/09/09 09:02:55;;;;;;;11.37;3.93;;;;;;;16.41;78.28;102392.38;5050723;28;20025;-68
2023/09/09 09:05:21;;;;;;;13.17;4.40;;;;;;;16.59;78.16;102407.59;5052433;28;20029;-68
2023/09/09 09:07:47;;;;;;;5.97;4.23;;;;;;;16.57;77.36;102390.78;5051982;28;20029;-65
2023/09/09 09:10:12;;;;;;;11.63;4.53;;;;;;;16.70;77.56;102407.31;5052011;28;20082;-68
2023/09/09 09:12:42;;;;;;;9.13;4.23;;;;;;;16.74;77.63;102403.31;5052017;28;20372;-66
2023/09/09 09:15:10;;;;;;;14.17;4.20;;;;;;;16.70;77.87;102392.03;5052041;28;20044;-66
2023/09/09 09:17:40;;;;;;;9.65;3.67;;;;;;;16.72;75.55;102383.78;5050582;28;20033;-69
2023/09/09 09:20:10;;;;;;;10.53;3.90;;;;;;;16.82;77.00;102389.91;5051696;28;20486;-68
2023/09/09 09:22:38;;;;;;;6.63;3.50;;;;;;;16.93;77.37;102407.56;5052013;28;20021;-68
2023/09/09 09:25:04;;;;;;;9.57;3.25;;;;;;;16.99;75.98;102402.38;5051795;28;20108;-71
2023/09/09 09:27:31;;;;;;;9.00;3.70;;;;;;;16.99;74.72;102397.00;5052069;28;20113;-68
2023/09/09 09:29:57;;;;;;;7.97;3.23;;;;;;;16.98;73.71;102384.53;5051721;28;20064;-67
2023/09/09 09:32:23;;;;;;;7.53;2.93;;;;;;;16.99;73.52;102380.84;5051623;28;20039;-66
2023/09/09 09:34:50;;;;;;;8.03;3.67;;;;;;;17.13;73.61;102397.38;5051843;28;20036;-69
2023/09/09 09:37:15;;;;;;;6.93;3.47;;;;;;;17.07;72.93;102384.56;5052125;28;20461;-66
2023/09/09 09:39:43;;;;;;;5.27;3.13;;;;;;;17.16;73.10;102383.56;5050446;28;20029;-68
2023/09/09 09:42:12;;;;;;;13.17;4.57;;;;;;;17.30;74.51;102394.50;5050328;28;20075;-68
2023/09/09 09:44:37;;;;;;;10.15;4.03;;;;;;;17.28;73.17;102387.59;5051481;28;20036;-67
2023/09/09 09:47:04;;;;;;;10.85;3.88;;;;;;;17.15;72.16;102368.44;5051800;28;20021;-67
2023/09/09 09:49:41;;;;;;;9.43;3.80;;;;;;;17.35;72.81;102396.72;5053896;28;20965;-67
2023/09/09 09:52:08;;;;;;;12.23;3.83;;;;;;;17.36;72.19;102386.78;5055791;28;20040;-67
2023/09/09 09:54:35;;;;;;;11.32;5.85;;;;;;;17.44;71.39;102384.94;5055427;28;20417;-67
2023/09/09 09:57:03;;;;;;;10.20;5.63;;;;;;;17.46;72.49;102388.31;5055507;28;20031;-65
2023/09/09 09:59:31;;;;;;;17.15;9.73;;;;;;;17.52;72.29;102390.31;5055622;28;20456;-68
2023/09/09 10:01:59;;;;;;;9.45;4.95;;;;;;;17.51;70.61;102399.41;5055363;28;20452;-67
2023/09/09 10:04:26;;;;;;;10.30;5.05;;;;;;;17.46;69.78;102380.22;5056441;28;20071;-68
2023/09/09 10:06:57;;;;;;;9.73;4.18;;;;;;;17.57;71.16;102389.81;5054848;28;20495;-70
2023/09/09 10:09:40;;;;;;;13.70;4.88;;;;;;;17.58;72.55;102392.31;5055546;28;20427;-69
2023/09/09 10:12:14;;;;;;;17.00;5.43;;;;;;;17.59;72.45;102383.22;5054451;28;20032;-66
2023/09/09 10:14:41;;;;;;;13.38;3.72;;;;;;;17.58;72.70;102380.72;5054368;28;20466;-67
2023/09/09 10:17:08;;;;;;;7.72;3.83;;;;;;;17.62;71.11;102384.75;5054301;28;20380;-68
2023/09/09 10:19:38;;;;;;;11.90;4.22;;;;;;;17.62;70.46;102372.13;5055242;28;20055;-67
2023/09/09 10:22:05;;;;;;;6.63;3.53;;;;;;;17.71;71.88;102372.16;5055126;28;20063;-68
2023/09/09 10:24:32;;;;;;;7.03;4.07;;;;;;;17.74;71.48;102369.13;5055288;28;20112;-66
2023/09/09 10:27:01;;;;;;;5.55;2.85;;;;;;;17.80;69.09;102379.22;5055296;28;20174;-69
2023/09/09 10:29:29;;;;;;;13.10;4.00;;;;;;;17.75;69.69;102366.25;5055628;28;20048;-67
2023/09/09 10:32:02;;;;;;;5.72;3.80;;;;;;;17.79;68.96;102377.53;5056304;28;20090;-67
2023/09/09 10:34:29;;;;;;;7.78;3.15;;;;;;;17.88;68.99;102381.88;5057498;28;20033;-68
2023/09/09 10:36:58;;;;;;;7.25;3.35;;;;;;;17.94;68.03;102387.44;5059570;28;20075;-66
2023/09/09 10:39:24;;;;;;;7.72;2.80;;;;;;;17.86;68.46;102370.44;5060658;28;20468;-64
2023/09/09 10:41:50;;;;;;;7.15;3.58;;;;;;;17.85;67.87;102363.38;5060225;28;20028;-67
2023/09/09 10:44:16;;;;;;;4.15;2.17;;;;;;;17.99;66.67;102381.53;5059455;28;20021;-67
2023/09/09 10:46:42;;;;;;;4.63;3.13;;;;;;;17.97;66.80;102371.94;5060577;28;20112;-68
2023/09/09 10:49:07;;;;;;;5.88;2.88;;;;;;;17.88;64.88;102347.69;5060759;28;20032;-68
2023/09/09 10:51:49;;;;;;;4.45;2.70;;;;;;;18.02;64.60;102362.31;5058824;28;20048;-68
2023/09/09 10:54:17;;;;;;;6.95;3.28;;;;;;;18.12;64.04;102373.75;5060412;28;20154;-68
2023/09/09 10:56:48;;;;;;;10.20;4.38;;;;;;;18.23;66.54;102381.47;5060386;28;20032;-66
2023/09/09 10:59:20;;;;;;;8.05;3.80;;;;;;;18.29;66.78;102385.34;5062525;28;20028;-65
2023/09/09 11:02:12;;;;;;;5.35;2.25;;;;;;;18.22;66.86;102350.13;5061548;28;20064;-67
2023/09/09 11:04:38;;;;;;;5.47;2.70;;;;;;;18.37;67.46;102371.81;5061895;28;20025;-65
2023/09/09 11:07:09;;;;;;;6.75;2.60;;;;;;;18.36;65.84;102371.97;5060548;28;20055;-68
2023/09/09 11:09:36;;;;;;;10.95;3.65;;;;;;;18.38;66.54;102369.94;5060079;28;20365;-66
2023/09/09 11:12:15;;;;;;;6.28;3.63;;;;;;;18.33;64.72;102364.25;5064450;28;20029;-66
2023/09/09 11:14:44;;;;;;;9.52;2.50;;;;;;;18.27;63.19;102365.78;5057341;28;20101;-67